Time;durP1;ratioP1;P1;durP2;ratioP2;P2;SDS_P1;SDS_P2;PMS_P1;PMS_P2;Temp;Humidity;BMP_temperature;BMP_pressure;BME280_temperature;BME280_humidity;BME280_pressure;Samples;Min_cycle;Max_cycle;Signal;HPM_P1;HPM_P2
2021/08/09 00:00:23;;;;;;;3.50;1.93;;;;;;;12.10;75.06;95842.22;5038826;28;20178;-76
2021/08/09 00:02:48;;;;;;;2.90;1.77;;;;;;;12.02;75.38;95836.97;5073115;28;20649;-76
2021/08/09 00:05:13;;;;;;;4.37;1.80;;;;;;;12.10;74.34;95830.06;5055300;28;20170;-76
2021/08/09 00:07:39;;;;;;;2.33;1.70;;;;;;;12.19;73.88;95836.97;5055330;28;20548;-75
2021/08/09 00:10:05;;;;;;;3.70;1.60;;;;;;;12.22;73.81;95830.63;5038624;28;20222;-76
2021/08/09 00:12:30;;;;;;;6.03;1.90;;;;;;;12.10;74.75;95829.22;5054970;28;20247;-76
2021/08/09 00:14:55;;;;;;;3.40;1.60;;;;;;;12.07;74.34;95825.13;5072935;28;20180;-76
2021/08/09 00:17:21;;;;;;;3.60;1.97;;;;;;;12.04;74.55;95825.44;5072814;28;20197;-76
2021/08/09 00:19:46;;;;;;;1.97;1.70;;;;;;;12.04;73.99;95830.66;5055182;28;20173;-76
2021/08/09 00:22:11;;;;;;;2.40;1.40;;;;;;;12.02;74.32;95823.97;5072866;28;20165;-76
2021/08/09 00:24:37;;;;;;;2.73;2.00;;;;;;;12.04;73.82;95827.25;5055020;28;20177;-76
2021/08/09 00:27:02;;;;;;;3.93;2.10;;;;;;;12.00;74.56;95829.31;5054794;28;20560;-76
2021/08/09 00:29:27;;;;;;;3.03;1.90;;;;;;;11.91;74.54;95831.00;5038293;28;20181;-74
2021/08/09 00:31:53;;;;;;;2.80;1.93;;;;;;;11.84;74.31;95813.56;5054679;28;20194;-76
2021/08/09 00:34:19;;;;;;;4.30;1.70;;;;;;;11.84;74.54;95819.59;5038116;28;20184;-76
2021/08/09 00:36:45;;;;;;;2.70;1.93;;;;;;;11.82;74.80;95816.28;5072515;28;20189;-76
2021/08/09 00:39:10;;;;;;;3.60;2.00;;;;;;;11.82;74.68;95815.47;5053987;28;20177;-75
2021/08/09 00:41:35;;;;;;;2.93;1.80;;;;;;;11.84;74.05;95818.78;5054124;28;20202;-76
2021/08/09 00:44:01;;;;;;;4.27;1.60;;;;;;;11.85;74.12;95815.19;5054666;28;20181;-75
2021/08/09 00:46:29;;;;;;;5.83;1.67;;;;;;;11.88;73.69;95814.88;5054454;28;20275;-75
2021/08/09 00:48:54;;;;;;;2.70;1.40;;;;;;;11.95;72.59;95817.72;5038261;28;20177;-75
2021/08/09 00:51:20;;;;;;;2.43;1.60;;;;;;;12.02;72.50;95816.97;5054284;28;20211;-76
2021/08/09 00:53:45;;;;;;;3.80;1.17;;;;;;;12.08;72.11;95824.16;5054425;28;20223;-76
2021/08/09 00:56:11;;;;;;;3.33;1.40;;;;;;;12.06;72.20;95817.47;5053799;28;20237;-76
2021/08/09 00:58:36;;;;;;;3.50;1.67;;;;;;;12.01;72.72;95820.53;5054394;28;20181;-75
2021/08/09 01:01:02;;;;;;;1.53;1.37;;;;;;;11.98;73.17;95823.44;5037586;28;20311;-76
2021/08/09 01:03:27;;;;;;;3.53;2.00;;;;;;;11.88;73.36;95822.69;5054205;28;20173;-75
2021/08/09 01:05:52;;;;;;;2.13;1.50;;;;;;;11.89;74.02;95826.94;5054175;28;20199;-74
2021/08/09 01:08:28;;;;;;;2.80;1.80;;;;;;;11.74;74.21;95821.38;5054223;28;20183;-76
2021/08/09 01:11:10;;;;;;;2.80;1.53;;;;;;;11.76;74.28;95823.88;5071765;28;20546;-76
2021/08/09 01:13:55;;;;;;;2.73;1.57;;;;;;;11.65;74.56;95827.47;5054266;28;20550;-76
2021/08/09 01:16:25;;;;;;;4.60;1.90;;;;;;;11.72;74.74;95823.31;5072273;28;20238;-76
2021/08/09 01:18:52;;;;;;;1.97;1.70;;;;;;;11.67;74.91;95822.16;5054142;28;20251;-76
2021/08/09 01:21:19;;;;;;;3.33;1.63;;;;;;;11.60;74.96;95817.53;5053947;28;20633;-76
2021/08/09 01:23:51;;;;;;;4.67;1.80;;;;;;;11.58;75.41;95822.06;5053980;28;20517;-76
2021/08/09 01:26:27;;;;;;;4.07;1.97;;;;;;;11.57;75.22;95833.44;5071741;28;20217;-76
2021/08/09 01:28:57;;;;;;;2.67;1.83;;;;;;;11.53;75.55;95834.69;5054250;28;20188;-76
2021/08/09 01:31:30;;;;;;;3.87;2.33;;;;;;;11.53;75.06;95841.66;5053369;28;20216;-76
2021/08/09 01:33:56;;;;;;;3.77;1.80;;;;;;;11.54;75.17;95843.28;5037528;28;20590;-76
2021/08/09 01:36:21;;;;;;;4.53;2.00;;;;;;;11.51;75.39;95841.00;5053812;28;20552;-76
2021/08/09 01:38:47;;;;;;;2.13;1.60;;;;;;;11.54;75.17;95844.09;5053927;28;20170;-76
2021/08/09 01:41:13;;;;;;;1.87;1.70;;;;;;;11.52;75.22;95846.03;5053650;28;20181;-76
2021/08/09 01:43:38;;;;;;;2.50;1.60;;;;;;;11.47;75.30;95835.25;5053640;28;20169;-77
2021/08/09 01:46:04;;;;;;;2.93;1.70;;;;;;;11.52;75.28;95840.84;5053483;28;20220;-76
2021/08/09 01:48:30;;;;;;;7.17;2.10;;;;;;;11.52;75.14;95846.03;5053735;28;20219;-76
2021/08/09 01:50:56;;;;;;;4.67;1.63;;;;;;;11.49;75.38;95843.75;5071302;28;20201;-76
2021/08/09 01:53:22;;;;;;;2.73;1.63;;;;;;;11.46;75.49;95849.22;5053682;28;20207;-76
2021/08/09 01:55:47;;;;;;;4.57;1.87;;;;;;;11.54;74.92;95844.09;5053788;28;20205;-76
2021/08/09 01:58:14;;;;;;;2.97;1.70;;;;;;;11.50;75.01;95845.38;5053711;28;20187;-75
2021/08/09 02:00:39;;;;;;;2.27;1.60;;;;;;;11.49;75.00;95846.34;5053347;28;20201;-76
2021/08/09 02:03:04;;;;;;;2.87;1.30;;;;;;;11.55;75.15;95850.13;5071223;28;20771;-76
2021/08/09 02:05:30;;;;;;;4.70;1.70;;;;;;;11.57;75.38;95843.84;5053423;28;20567;-75
2021/08/09 02:07:55;;;;;;;2.97;1.30;;;;;;;11.66;75.11;95843.91;5071331;28;20673;-76
2021/08/09 02:10:26;;;;;;;3.90;1.40;;;;;;;11.72;74.69;95840.72;5071390;28;20180;-76
2021/08/09 02:13:13;;;;;;;1.50;1.40;;;;;;;11.61;75.11;95850.38;5053133;28;20205;-75
2021/08/09 02:15:50;;;;;;;3.13;1.60;;;;;;;11.61;74.72;95850.38;5071321;28;20200;-76
2021/08/09 02:18:27;;;;;;;3.37;1.80;;;;;;;11.60;74.96;95860.94;5053078;28;20169;-76
2021/08/09 02:20:56;;;;;;;3.97;1.60;;;;;;;11.61;75.16;95858.19;5053269;28;20261;-76
2021/08/09 02:23:23;;;;;;;5.03;2.10;;;;;;;11.72;75.06;95858.94;5036359;28;20176;-76
2021/08/09 02:25:50;;;;;;;2.50;1.67;;;;;;;11.74;74.78;95864.78;5053384;28;20185;-75
2021/08/09 02:28:17;;;;;;;5.17;2.30;;;;;;;11.75;74.41;95856.03;5053328;28;20209;-76
2021/08/09 02:30:44;;;;;;;4.27;1.80;;;;;;;11.66;74.92;95860.34;5053267;28;20176;-75
2021/08/09 02:33:10;;;;;;;3.77;2.10;;;;;;;11.66;75.00;95859.50;5053024;28;20200;-77
2021/08/09 02:35:36;;;;;;;3.10;1.40;;;;;;;11.60;75.13;95860.94;5036422;28;20204;-75
2021/08/09 02:38:02;;;;;;;3.77;1.90;;;;;;;11.64;75.36;95855.28;5044894;28;20181;-76
2021/08/09 02:40:27;;;;;;;4.83;2.00;;;;;;;11.62;75.41;95862.41;5053182;28;20219;-75
2021/08/09 02:42:54;;;;;;;3.57;1.57;;;;;;;11.67;75.17;95858.56;5052927;28;20188;-76
2021/08/09 02:45:19;;;;;;;4.30;2.00;;;;;;;11.71;75.13;95844.28;5053062;28;20197;-76
2021/08/09 02:47:45;;;;;;;3.77;1.97;;;;;;;11.75;75.24;95853.41;5071018;28;20539;-76
2021/08/09 02:50:11;;;;;;;3.20;1.70;;;;;;;11.71;75.33;95855.50;5052826;28;20181;-76
2021/08/09 02:52:40;;;;;;;3.17;1.60;;;;;;;11.76;75.52;95853.28;5052833;28;20209;-76
2021/08/09 02:55:07;;;;;;;2.47;1.50;;;;;;;11.80;75.19;95852.06;5036143;28;20173;-76
2021/08/09 02:57:32;;;;;;;3.40;1.90;;;;;;;11.86;74.74;95853.25;5052940;28;20221;-76
2021/08/09 02:59:58;;;;;;;4.03;1.70;;;;;;;11.92;74.37;95860.44;5053005;28;20311;-75
2021/08/09 03:02:24;;;;;;;2.90;2.03;;;;;;;12.04;74.05;95853.25;5038732;28;20169;-77
2021/08/09 03:04:50;;;;;;;2.20;1.50;;;;;;;12.06;74.04;95857.34;5056513;28;20186;-76
2021/08/09 03:07:16;;;;;;;2.43;1.47;;;;;;;12.12;73.88;95851.56;5074474;28;20197;-76
2021/08/09 03:09:41;;;;;;;4.23;2.90;;;;;;;12.12;73.70;95856.75;5039719;28;20200;-76
2021/08/09 03:12:06;;;;;;;3.40;1.23;;;;;;;12.29;72.66;95855.13;5039346;28;20205;-76
2021/08/09 03:14:32;;;;;;;4.57;2.10;;;;;;;12.33;72.74;95861.66;5074270;28;20256;-76
2021/08/09 03:17:02;;;;;;;4.57;1.80;;;;;;;12.36;72.30;95853.53;5055780;28;20227;-76
2021/08/09 03:19:29;;;;;;;3.70;1.70;;;;;;;12.29;72.63;95846.47;5039671;28;20185;-76
2021/08/09 03:21:56;;;;;;;3.13;1.50;;;;;;;12.31;72.54;95854.97;5055922;28;20704;-76
2021/08/09 03:24:23;;;;;;;3.60;1.60;;;;;;;12.28;72.95;95850.88;5056241;28;20177;-76
2021/08/09 03:26:49;;;;;;;2.90;1.47;;;;;;;12.12;73.46;95858.53;5056033;28;20197;-77
2021/08/09 03:29:14;;;;;;;1.67;1.30;;;;;;;12.03;74.00;95854.22;5039277;28;20441;-76
2021/08/09 03:31:40;;;;;;;1.63;1.50;;;;;;;12.02;73.95;95847.41;5055688;28;20681;-76
2021/08/09 03:34:05;;;;;;;3.10;1.47;;;;;;;12.04;74.19;95842.84;5056015;28;20184;-76
2021/08/09 03:36:30;;;;;;;3.50;1.67;;;;;;;12.02;73.80;95839.59;5055989;28;20254;-76
2021/08/09 03:38:56;;;;;;;3.87;1.70;;;;;;;12.00;74.16;95846.69;5039230;28;20239;-76
2021/08/09 03:41:21;;;;;;;2.73;1.60;;;;;;;11.91;74.86;95851.00;5055800;28;20169;-74
2021/08/09 03:43:46;;;;;;;2.87;1.50;;;;;;;11.88;74.95;95843.50;5039111;28;20231;-76
2021/08/09 03:46:13;;;;;;;3.77;1.70;;;;;;;11.90;74.68;95849.38;5038867;28;20200;-75
2021/08/09 03:48:38;;;;;;;6.23;1.90;;;;;;;12.05;74.17;95847.09;5055963;28;20174;-76
2021/08/09 03:51:03;;;;;;;1.87;1.50;;;;;;;12.15;73.52;95846.03;5055868;28;20203;-75
2021/08/09 03:53:28;;;;;;;1.93;1.50;;;;;;;12.19;73.39;95833.53;5055531;28;20185;-76
2021/08/09 03:55:54;;;;;;;2.67;1.50;;;;;;;12.32;73.06;95840.97;5073228;28;20215;-76
2021/08/09 03:58:19;;;;;;;3.30;1.37;;;;;;;12.31;72.92;95831.53;5073331;28;20207;-76
2021/08/09 04:00:44;;;;;;;2.67;1.50;;;;;;;12.30;73.22;95845.50;5055555;28;20181;-76
2021/08/09 04:03:10;;;;;;;2.03;1.50;;;;;;;12.35;73.13;95833.66;5038583;28;20222;-76
2021/08/09 04:05:35;;;;;;;6.23;1.73;;;;;;;12.44;72.79;95839.75;5038750;28;20803;-76
2021/08/09 04:08:00;;;;;;;2.97;1.50;;;;;;;12.52;72.30;95839.81;5055401;28;20177;-75
2021/08/09 04:10:25;;;;;;;1.70;1.53;;;;;;;12.48;72.56;95844.50;5073292;28;20184;-76
2021/08/09 04:12:51;;;;;;;5.83;1.80;;;;;;;12.59;71.83;95846.03;5053748;28;20205;-75
2021/08/09 04:15:16;;;;;;;3.27;1.43;;;;;;;12.62;71.65;95843.13;5055200;28;20205;-75
2021/08/09 04:17:42;;;;;;;2.63;1.40;;;;;;;12.66;71.49;95844.47;5038127;28;20548;-76
2021/08/09 04:20:08;;;;;;;4.00;2.00;;;;;;;12.59;71.70;95845.22;5038631;28;20181;-76
2021/08/09 04:22:34;;;;;;;2.53;1.37;;;;;;;12.60;71.83;95836.44;5072656;28;20181;-76
2021/08/09 04:25:01;;;;;;;4.13;1.27;;;;;;;12.65;71.67;95827.22;5072810;28;20177;-76
2021/08/09 04:27:26;;;;;;;2.97;1.43;;;;;;;12.55;71.77;95829.09;5073138;28;20256;-77
2021/08/09 04:29:51;;;;;;;1.67;1.33;;;;;;;12.62;71.50;95824.88;5073442;28;20178;-76
2021/08/09 04:32:17;;;;;;;2.20;1.20;;;;;;;12.60;71.96;95832.03;5054842;28;20611;-76
2021/08/09 04:34:43;;;;;;;1.47;1.37;;;;;;;12.65;71.72;95835.03;5055219;28;20173;-77
2021/08/09 04:37:09;;;;;;;5.37;1.70;;;;;;;12.48;72.29;95836.69;5054759;28;20197;-77
2021/08/09 04:39:34;;;;;;;2.67;1.33;;;;;;;12.35;72.42;95851.88;5072692;28;20231;-76
2021/08/09 04:41:59;;;;;;;5.13;1.73;;;;;;;12.33;72.81;95847.81;5054704;28;20222;-77
2021/08/09 04:44:25;;;;;;;2.03;1.67;;;;;;;12.42;72.24;95850.31;5054939;28;20222;-76
2021/08/09 04:46:50;;;;;;;2.23;1.40;;;;;;;12.59;71.68;95834.81;5054677;28;20216;-76
2021/08/09 04:49:15;;;;;;;5.37;1.77;;;;;;;12.46;72.14;95835.22;5072630;28;20177;-76
2021/08/09 04:51:41;;;;;;;2.50;1.63;;;;;;;12.70;71.46;95832.75;5037714;28;20205;-77
2021/08/09 04:54:06;;;;;;;2.97;1.57;;;;;;;12.67;71.83;95835.69;5073091;28;20698;-76
2021/08/09 04:56:32;;;;;;;2.80;1.83;;;;;;;12.68;71.71;95842.53;5037564;28;20215;-76
2021/08/09 04:58:57;;;;;;;2.33;1.30;;;;;;;12.82;71.15;95851.59;5038034;28;20173;-76
2021/08/09 05:01:22;;;;;;;2.60;1.47;;;;;;;12.97;70.71;95854.41;5037715;28;20770;-77
2021/08/09 05:03:48;;;;;;;4.23;1.40;;;;;;;13.75;68.59;95855.09;5054575;28;20181;-76
2021/08/09 05:06:14;;;;;;;4.70;1.60;;;;;;;14.69;64.22;95851.25;5037690;28;20304;-77
2021/08/09 05:08:39;;;;;;;2.63;1.50;;;;;;;15.65;60.44;95856.41;5054396;28;20179;-77
2021/08/09 05:11:04;;;;;;;3.50;1.47;;;;;;;16.79;57.51;95844.31;5037960;28;20205;-77
2021/08/09 05:13:29;;;;;;;2.10;1.05;;;;;;;17.63;54.86;95857.97;5037341;28;20191;-77
2021/08/09 05:15:55;;;;;;;2.45;1.20;;;;;;;18.42;53.49;95858.03;5072586;28;20201;-76
2021/08/09 05:18:20;;;;;;;3.45;1.27;;;;;;;17.93;53.77;95866.63;5071955;28;20181;-76
2021/08/09 05:20:47;;;;;;;3.00;1.30;;;;;;;17.78;52.62;95870.09;5072643;28;20180;-76
2021/08/09 05:23:14;;;;;;;2.33;1.08;;;;;;;17.80;52.98;95865.47;5040730;28;20193;-77
2021/08/09 05:25:39;;;;;;;3.20;1.10;;;;;;;17.73;53.17;95855.88;5057257;28;20239;-77
2021/08/09 05:28:04;;;;;;;3.05;1.20;;;;;;;17.26;54.90;95863.16;5074793;28;20181;-76
2021/08/09 05:30:30;;;;;;;1.80;1.30;;;;;;;16.96;56.16;95858.88;5091521;28;20370;-77
2021/08/09 05:32:55;;;;;;;4.70;1.33;;;;;;;16.67;56.93;95865.66;5075171;28;20295;-76
2021/08/09 05:35:21;;;;;;;3.22;1.33;;;;;;;16.27;57.48;95860.78;5065334;28;20204;-75
2021/08/09 05:37:46;;;;;;;2.55;1.10;;;;;;;16.08;58.57;95851.56;5073550;28;20683;-75
2021/08/09 05:40:12;;;;;;;1.08;0.82;;;;;;;15.91;60.04;95861.34;5073269;28;20184;-75
2021/08/09 05:42:37;;;;;;;4.00;1.35;;;;;;;15.79;60.14;95863.50;5090115;28;20180;-76
2021/08/09 05:45:06;;;;;;;2.17;1.20;;;;;;;15.65;59.98;95860.81;5073532;28;20237;-76
2021/08/09 05:47:32;;;;;;;3.05;1.10;;;;;;;15.48;60.14;95865.28;5091857;28;20183;-76
2021/08/09 05:49:57;;;;;;;2.05;1.40;;;;;;;15.33;61.26;95866.97;5091566;28;20172;-75
2021/08/09 05:52:24;;;;;;;2.30;1.60;;;;;;;15.40;61.59;95873.97;5056638;28;20196;-76
2021/08/09 05:54:50;;;;;;;2.25;1.05;;;;;;;15.72;60.72;95866.97;5036492;28;20667;-76
2021/08/09 05:57:15;;;;;;;3.13;1.23;;;;;;;15.94;60.59;95873.25;5053580;28;20193;-77
2021/08/09 05:59:41;;;;;;;2.60;1.42;;;;;;;16.31;59.47;95868.09;5053463;28;20526;-78
2021/08/09 06:02:06;;;;;;;3.67;1.38;;;;;;;16.53;58.91;95861.22;5053998;28;20234;-78
2021/08/09 06:04:32;;;;;;;1.85;1.10;;;;;;;17.13;57.46;95859.50;5070536;28;20200;-77
2021/08/09 06:06:57;;;;;;;2.88;1.20;;;;;;;18.18;54.82;95862.66;5053919;28;20219;-77
2021/08/09 06:09:22;;;;;;;1.25;1.00;;;;;;;19.34;51.67;95869.25;5053742;28;20234;-76
2021/08/09 06:11:48;;;;;;;1.77;1.17;;;;;;;20.17;48.59;95870.03;5071406;28;20242;-77
2021/08/09 06:14:13;;;;;;;2.85;1.00;;;;;;;21.69;44.48;95864.72;5073564;28;20640;-76
2021/08/09 06:16:38;;;;;;;2.15;1.08;;;;;;;22.84;41.60;95859.38;5091485;28;20265;-77
2021/08/09 06:19:03;;;;;;;1.83;1.00;;;;;;;23.74;39.80;95862.41;5073479;28;20644;-77
2021/08/09 06:21:29;;;;;;;1.20;1.00;;;;;;;23.71;39.11;95862.88;5073272;28;20177;-76
2021/08/09 06:23:54;;;;;;;2.13;0.77;;;;;;;25.43;36.24;95853.13;5056872;28;20272;-77
2021/08/09 06:26:19;;;;;;;2.05;0.82;;;;;;;26.01;34.23;95863.94;5073168;28;20205;-77
2021/08/09 06:28:45;;;;;;;1.00;0.82;;;;;;;25.79;34.34;95859.22;5073300;28;20208;-76
2021/08/09 06:31:10;;;;;;;1.27;0.85;;;;;;;26.21;33.87;95864.31;5052827;28;20201;-75
2021/08/09 06:33:36;;;;;;;1.70;1.10;;;;;;;25.80;34.10;95860.88;5069910;28;20176;-77
2021/08/09 06:36:01;;;;;;;1.92;1.00;;;;;;;25.35;35.96;95868.63;5070273;28;20196;-77
2021/08/09 06:38:27;;;;;;;2.08;1.15;;;;;;;24.80;36.27;95875.06;5073798;28;20176;-77
2021/08/09 06:40:52;;;;;;;1.83;1.02;;;;;;;22.70;40.14;95869.25;5073562;28;20177;-77
2021/08/09 06:43:17;;;;;;;2.00;1.20;;;;;;;21.08;44.07;95875.59;5073467;28;20177;-77
2021/08/09 06:45:43;;;;;;;2.20;1.23;;;;;;;20.46;45.97;95871.53;5074760;28;20699;-76
2021/08/09 06:48:10;;;;;;;2.28;0.95;;;;;;;20.54;45.61;95873.97;5073514;28;20621;-76
2021/08/09 06:50:36;;;;;;;2.00;1.30;;;;;;;20.97;45.44;95876.22;5073318;28;20686;-77
2021/08/09 06:53:01;;;;;;;2.17;1.00;;;;;;;22.47;41.59;95872.50;5039732;28;20213;-77
2021/08/09 06:55:28;;;;;;;1.45;1.20;;;;;;;22.98;40.69;95878.66;5056585;28;20284;-76
2021/08/09 06:57:53;;;;;;;3.90;1.15;;;;;;;24.13;38.62;95882.34;5073333;28;20264;-76
2021/08/09 07:00:19;;;;;;;3.25;1.00;;;;;;;24.76;36.96;95873.91;5073387;28;20666;-76
2021/08/09 07:02:45;;;;;;;3.22;1.42;;;;;;;25.02;36.42;95874.53;5074143;28;20758;-76
2021/08/09 07:05:11;;;;;;;3.80;1.40;;;;;;;24.80;36.71;95885.69;5056791;28;20197;-77
2021/08/09 07:07:38;;;;;;;1.40;1.10;;;;;;;24.30;38.11;95882.53;5094838;28;20679;-76
2021/08/09 07:10:03;;;;;;;2.38;1.10;;;;;;;22.55;40.91;95876.72;5076846;28;20651;-75
2021/08/09 07:12:29;;;;;;;1.60;1.00;;;;;;;23.14;40.80;95878.09;5094206;28;20211;-75
2021/08/09 07:14:54;;;;;;;4.93;1.17;;;;;;;22.59;42.10;95886.66;5059861;28;20180;-75
2021/08/09 07:17:19;;;;;;;2.78;1.60;;;;;;;24.07;38.59;95888.53;5076020;28;20219;-75
2021/08/09 07:19:45;;;;;;;3.33;1.13;;;;;;;23.74;39.40;95888.91;5075896;28;20208;-76
2021/08/09 07:22:11;;;;;;;2.53;1.13;;;;;;;24.20;38.07;95883.03;5093992;28;20544;-75
2021/08/09 07:24:36;;;;;;;2.42;1.08;;;;;;;23.99;39.05;95881.69;5059824;28;20275;-76
2021/08/09 07:27:02;;;;;;;1.83;0.90;;;;;;;23.73;38.59;95884.66;5076056;28;20195;-75
2021/08/09 07:29:29;;;;;;;1.60;0.85;;;;;;;23.26;39.24;95880.84;5094265;28;20179;-74
2021/08/09 07:31:54;;;;;;;2.30;1.10;;;;;;;22.61;41.16;95875.84;5059352;28;20220;-75
2021/08/09 07:34:19;;;;;;;3.95;1.52;;;;;;;22.65;41.23;95882.34;5094090;28;20177;-75
2021/08/09 07:36:45;;;;;;;2.78;1.30;;;;;;;22.49;40.86;95885.50;5075179;28;20192;-75
2021/08/09 07:39:10;;;;;;;2.45;1.00;;;;;;;22.33;41.58;95881.53;5093778;28;20208;-75
2021/08/09 07:41:35;;;;;;;1.65;0.90;;;;;;;21.48;42.91;95884.31;5058397;28;20192;-75
2021/08/09 07:44:01;;;;;;;2.20;1.00;;;;;;;21.44;43.60;95877.78;5058783;28;20725;-75
2021/08/09 07:46:27;;;;;;;3.05;1.30;;;;;;;21.19;43.09;95880.25;5075322;28;20271;-75
2021/08/09 07:48:53;;;;;;;2.92;0.90;;;;;;;21.12;44.68;95874.19;5075610;28;20602;-75
2021/08/09 07:51:18;;;;;;;4.05;1.10;;;;;;;20.18;46.47;95881.41;5075836;28;20288;-75
2021/08/09 07:53:43;;;;;;;3.85;1.02;;;;;;;20.35;47.67;95877.38;5075733;28;20198;-75
2021/08/09 07:56:09;;;;;;;4.03;1.10;;;;;;;20.03;48.36;95871.81;5093632;28;20261;-75
2021/08/09 07:58:34;;;;;;;1.30;0.93;;;;;;;19.56;48.52;95877.06;5075723;28;20641;-74
2021/08/09 08:00:59;;;;;;;1.80;1.20;;;;;;;19.69;49.66;95882.41;5075557;28;20191;-75
2021/08/09 08:03:25;;;;;;;2.55;1.10;;;;;;;19.72;49.74;95882.06;5074812;28;20551;-76
2021/08/09 08:05:50;;;;;;;2.72;1.02;;;;;;;19.65;50.23;95881.19;5058713;28;20258;-75
2021/08/09 08:08:15;;;;;;;2.80;1.08;;;;;;;19.54;50.20;95887.81;5075349;28;20184;-75
2021/08/09 08:10:40;;;;;;;2.10;1.20;;;;;;;19.64;49.69;95884.84;5075263;28;20230;-74
2021/08/09 08:13:06;;;;;;;2.50;1.13;;;;;;;19.53;50.00;95879.09;5093080;28;20202;-76
2021/08/09 08:15:31;;;;;;;3.38;1.10;;;;;;;19.57;50.13;95878.72;5075258;28;20196;-76
2021/08/09 08:17:57;;;;;;;2.03;0.98;;;;;;;20.02;49.85;95878.09;5075054;28;20215;-76
2021/08/09 08:20:22;;;;;;;4.07;1.20;;;;;;;19.88;48.38;95876.44;5054303;28;20598;-76
2021/08/09 08:22:47;;;;;;;2.95;1.20;;;;;;;19.63;49.82;95876.13;5091496;28;20177;-75
2021/08/09 08:25:13;;;;;;;2.28;1.00;;;;;;;20.04;49.78;95885.81;5073409;28;20172;-76
2021/08/09 08:27:38;;;;;;;2.45;1.13;;;;;;;19.93;47.91;95879.28;5074929;28;20356;-76
2021/08/09 08:30:05;;;;;;;2.35;1.38;;;;;;;20.08;47.41;95885.22;5092715;28;20187;-76
2021/08/09 08:32:31;;;;;;;2.63;1.00;;;;;;;20.34;47.79;95881.03;5073614;28;20205;-76
2021/08/09 08:34:56;;;;;;;2.03;1.08;;;;;;;20.24;48.28;95886.69;5058029;28;20198;-76
2021/08/09 08:37:21;;;;;;;2.63;1.00;;;;;;;20.21;48.56;95886.25;5074356;28;20227;-76
2021/08/09 08:39:47;;;;;;;2.45;1.00;;;;;;;20.59;48.35;95882.13;5074755;28;20173;-75
2021/08/09 08:42:13;;;;;;;2.63;1.08;;;;;;;19.91;47.53;95881.31;5073590;28;20180;-75
2021/08/09 08:44:39;;;;;;;2.13;0.90;;;;;;;20.06;47.10;95883.81;5074156;28;20176;-75
2021/08/09 08:47:04;;;;;;;3.15;1.10;;;;;;;19.90;46.29;95878.88;5053790;28;20243;-75
2021/08/09 08:49:30;;;;;;;1.80;0.90;;;;;;;20.34;46.38;95878.38;5072249;28;20177;-75
2021/08/09 08:51:55;;;;;;;2.45;0.80;;;;;;;20.73;45.60;95890.03;5054003;28;20700;-76
2021/08/09 08:54:20;;;;;;;1.30;0.90;;;;;;;20.52;44.85;95883.94;5076383;28;20173;-75
2021/08/09 08:56:46;;;;;;;4.07;1.20;;;;;;;21.19;44.44;95882.06;5091819;28;20243;-75
2021/08/09 08:59:17;;;;;;;1.60;0.88;;;;;;;21.14;44.07;95881.91;5073482;28;20176;-76
2021/08/09 09:01:45;;;;;;;1.90;1.02;;;;;;;21.03;42.60;95883.34;5074116;28;21023;-75
2021/08/09 09:04:19;;;;;;;3.58;1.20;;;;;;;21.37;41.17;95887.56;5070996;28;20268;-75
2021/08/09 09:06:45;;;;;;;3.25;1.17;;;;;;;21.31;42.34;95887.59;5074184;28;20192;-75
2021/08/09 09:09:20;;;;;;;1.80;0.82;;;;;;;21.67;42.42;95895.84;5074137;28;20230;-75
2021/08/09 09:11:45;;;;;;;2.63;1.00;;;;;;;21.44;41.85;95882.28;5073217;28;20203;-76
2021/08/09 09:14:10;;;;;;;3.00;1.10;;;;;;;21.12;42.01;95900.59;5091559;28;20173;-76
2021/08/09 09:16:47;;;;;;;1.00;0.90;;;;;;;20.82;42.15;95896.72;5073595;28;20698;-75
2021/08/09 09:19:36;;;;;;;1.90;0.80;;;;;;;20.98;42.74;95898.97;5073709;28;20226;-76
2021/08/09 09:22:04;;;;;;;1.45;0.90;;;;;;;20.94;44.32;95897.75;5091610;28;20164;-76
2021/08/09 09:24:29;;;;;;;5.10;1.10;;;;;;;20.78;44.12;95903.44;5091912;28;20172;-75
2021/08/09 09:27:02;;;;;;;3.53;1.00;;;;;;;20.46;44.20;95916.38;5091718;28;20235;-77
2021/08/09 09:29:34;;;;;;;1.38;0.80;;;;;;;20.46;44.48;95908.47;5073715;28;20644;-77
2021/08/09 09:32:12;;;;;;;1.92;0.80;;;;;;;20.57;44.59;95907.06;5073584;28;20200;-76
2021/08/09 09:34:45;;;;;;;1.77;0.95;;;;;;;20.66;43.85;95913.75;5073763;28;20227;-76
2021/08/09 09:37:21;;;;;;;2.15;0.90;;;;;;;20.77;44.43;95907.91;5056894;28;20194;-77
2021/08/09 09:39:46;;;;;;;1.52;0.90;;;;;;;21.25;44.79;95904.22;5057435;28;20184;-76
2021/08/09 09:42:14;;;;;;;2.97;1.02;;;;;;;21.60;42.97;95910.91;5074299;28;20687;-77
2021/08/09 09:44:41;;;;;;;2.03;0.93;;;;;;;22.08;42.93;95918.47;5057437;28;20551;-76
2021/08/09 09:47:26;;;;;;;3.03;0.90;;;;;;;22.37;40.68;95921.63;5057463;28;20192;-77
2021/08/09 09:49:54;;;;;;;3.15;1.45;;;;;;;22.24;40.22;95925.13;5092721;28;20169;-76
2021/08/09 09:52:44;;;;;;;2.85;0.90;;;;;;;22.54;39.71;95920.09;5073857;28;20676;-77
2021/08/09 09:55:11;;;;;;;1.75;0.88;;;;;;;22.92;38.96;95917.41;5053691;28;20226;-77
2021/08/09 09:57:38;;;;;;;1.02;0.88;;;;;;;22.94;37.09;95922.47;5054190;28;20177;-77
2021/08/09 10:00:07;;;;;;;3.65;1.17;;;;;;;22.59;38.24;95917.59;5054063;28;20177;-77
2021/08/09 10:02:32;;;;;;;2.25;1.05;;;;;;;22.76;39.77;95916.06;5037693;28;20176;-77
2021/08/09 10:04:58;;;;;;;3.20;0.88;;;;;;;22.49;40.81;95917.25;5037260;28;20256;-76
2021/08/09 10:07:26;;;;;;;2.17;0.82;;;;;;;22.55;40.35;95908.47;5073863;28;20204;-76
2021/08/09 10:09:54;;;;;;;1.65;0.80;;;;;;;23.05;39.09;95906.69;5058208;28;20172;-76
2021/08/09 10:12:24;;;;;;;1.02;0.73;;;;;;;23.19;40.43;95915.34;5077955;28;20196;-77
2021/08/09 10:14:51;;;;;;;2.75;1.00;;;;;;;22.99;39.07;95912.06;5093319;28;20184;-78
2021/08/09 10:17:16;;;;;;;3.47;1.15;;;;;;;23.46;36.69;95915.91;5077937;28;20222;-76
2021/08/09 10:19:45;;;;;;;2.50;1.00;;;;;;;23.46;36.79;95916.72;5060134;28;21174;-76
2021/08/09 10:22:10;;;;;;;3.72;0.95;;;;;;;23.61;34.82;95916.41;5075294;28;20169;-77
2021/08/09 10:24:37;;;;;;;1.33;1.00;;;;;;;23.35;35.84;95914.78;5077692;28;20536;-77
2021/08/09 10:27:02;;;;;;;2.90;0.98;;;;;;;22.79;37.64;95918.28;5060739;28;20196;-76
2021/08/09 10:29:28;;;;;;;3.60;1.15;;;;;;;22.58;38.02;95922.09;5095971;28;20609;-76
2021/08/09 10:32:19;;;;;;;2.28;1.17;;;;;;;22.87;37.87;95919.88;5060390;28;20204;-76
2021/08/09 10:34:45;;;;;;;1.92;1.05;;;;;;;23.29;38.91;95920.97;5095968;28;20172;-76
2021/08/09 10:37:13;;;;;;;3.40;1.50;;;;;;;23.62;35.88;95923.31;5077457;28;20692;-75
2021/08/09 10:39:58;;;;;;;2.58;1.10;;;;;;;24.06;36.67;95924.06;5095357;28;20173;-76
2021/08/09 10:42:44;;;;;;;2.17;1.00;;;;;;;24.22;36.26;95917.34;5077470;28;20269;-77
2021/08/09 10:45:11;;;;;;;1.38;1.00;;;;;;;24.02;36.95;95912.25;5060088;28;20203;-77
2021/08/09 10:47:46;;;;;;;2.15;1.10;;;;;;;23.93;36.25;95913.59;5060461;28;20177;-76
2021/08/09 10:50:43;;;;;;;1.45;0.90;;;;;;;22.95;35.91;95908.22;5095447;28;20259;-76
2021/08/09 10:53:30;;;;;;;2.58;0.98;;;;;;;22.85;37.60;95903.41;5094684;28;20291;-77
2021/08/09 10:55:56;;;;;;;2.90;1.02;;;;;;;23.39;36.23;95900.06;5077625;28;20208;-76
2021/08/09 10:58:40;;;;;;;1.70;1.00;;;;;;;23.54;35.86;95910.31;5076890;28;20219;-76
2021/08/09 11:01:05;;;;;;;3.38;1.20;;;;;;;23.33;35.35;95910.75;5095251;28;20555;-76
2021/08/09 11:03:31;;;;;;;2.03;0.90;;;;;;;22.79;36.68;95913.00;5095750;28;20172;-76
2021/08/09 11:05:56;;;;;;;2.67;1.30;;;;;;;23.31;36.62;95908.28;5060546;28;20206;-76
2021/08/09 11:08:24;;;;;;;2.30;1.27;;;;;;;23.56;36.24;95912.75;5078045;28;20172;-77
2021/08/09 11:11:00;;;;;;;1.92;0.98;;;;;;;24.24;35.32;95909.94;5078202;28;20184;-77
2021/08/09 11:13:26;;;;;;;3.92;1.00;;;;;;;24.28;35.38;95921.72;5088804;28;20187;-76
2021/08/09 11:16:04;;;;;;;3.55;1.20;;;;;;;24.21;36.13;95918.38;5096553;28;20189;-77
2021/08/09 11:18:30;;;;;;;1.80;1.30;;;;;;;24.29;35.81;95921.53;5112601;28;20173;-75
2021/08/09 11:21:11;;;;;;;2.47;1.13;;;;;;;24.29;35.16;95924.19;5115069;28;20232;-76
2021/08/09 11:23:41;;;;;;;2.95;1.17;;;;;;;23.99;35.57;95921.47;5090629;28;20560;-79
2021/08/09 11:26:21;;;;;;;1.63;1.20;;;;;;;23.48;36.12;95916.50;5059954;28;20192;-77
2021/08/09 11:29:05;;;;;;;1.85;1.30;;;;;;;22.49;38.69;95917.25;5076433;28;20514;-77
2021/08/09 11:31:44;;;;;;;3.40;1.25;;;;;;;22.81;39.67;95915.44;5056213;28;20193;-76
2021/08/09 11:34:09;;;;;;;4.10;1.45;;;;;;;23.13;40.34;95916.19;5056370;28;20787;-76